sensor_id;sensor_type;location;lat;lon;timestamp;P1;durP1;ratioP1;P2;durP2;ratioP2
4305;SDS011;2166;49.926;8.608;2023-07-29T00:01:17;14.77;;;7.35;;
4305;SDS011;2166;49.926;8.608;2023-07-29T00:03:46;14.13;;;7.10;;
4305;SDS011;2166;49.926;8.608;2023-07-29T00:06:14;11.40;;;7.28;;
4305;SDS011;2166;49.926;8.608;2023-07-29T00:08:42;11.05;;;7.05;;
4305;SDS011;2166;49.926;8.608;2023-07-29T00:11:11;11.15;;;7.00;;
4305;SDS011;2166;49.926;8.608;2023-07-29T00:13:39;7.47;;;6.00;;
4305;SDS011;2166;49.926;8.608;2023-07-29T00:16:08;10.75;;;6.38;;
4305;SDS011;2166;49.926;8.608;2023-07-29T00:18:38;5.90;;;5.28;;
4305;SDS011;2166;49.926;8.608;2023-07-29T00:21:06;7.50;;;5.25;;
4305;SDS011;2166;49.926;8.608;2023-07-29T00:23:35;5.22;;;4.72;;
4305;SDS011;2166;49.926;8.608;2023-07-29T00:26:03;7.28;;;4.45;;
4305;SDS011;2166;49.926;8.608;2023-07-29T00:28:31;4.93;;;4.25;;
4305;SDS011;2166;49.926;8.608;2023-07-29T00:31:00;7.70;;;4.38;;
4305;SDS011;2166;49.926;8.608;2023-07-29T00:33:29;5.25;;;4.13;;
4305;SDS011;2166;49.926;8.608;2023-07-29T00:35:59;6.82;;;3.55;;
4305;SDS011;2166;49.926;8.608;2023-07-29T00:38:29;5.22;;;4.13;;
4305;SDS011;2166;49.926;8.608;2023-07-29T00:40:58;6.32;;;3.75;;
4305;SDS011;2166;49.926;8.608;2023-07-29T00:43:27;4.97;;;4.07;;
4305;SDS011;2166;49.926;8.608;2023-07-29T00:45:56;5.68;;;3.50;;
4305;SDS011;2166;49.926;8.608;2023-07-29T00:48:25;4.10;;;3.17;;
4305;SDS011;2166;49.926;8.608;2023-07-29T00:50:55;5.93;;;3.60;;
4305;SDS011;2166;49.926;8.608;2023-07-29T00:53:25;4.30;;;2.97;;
4305;SDS011;2166;49.926;8.608;2023-07-29T00:55:53;4.07;;;3.10;;
4305;SDS011;2166;49.926;8.608;2023-07-29T00:58:22;6.50;;;3.13;;
4305;SDS011;2166;49.926;8.608;2023-07-29T01:00:50;4.82;;;2.72;;
4305;SDS011;2166;49.926;8.608;2023-07-29T01:03:21;4.10;;;3.00;;
4305;SDS011;2166;49.926;8.608;2023-07-29T01:05:50;5.63;;;2.72;;
4305;SDS011;2166;49.926;8.608;2023-07-29T01:08:37;5.03;;;2.67;;
4305;SDS011;2166;49.926;8.608;2023-07-29T01:11:17;4.38;;;2.22;;
4305;SDS011;2166;49.926;8.608;2023-07-29T01:14:02;5.07;;;2.33;;
4305;SDS011;2166;49.926;8.608;2023-07-29T01:19:06;2.38;;;1.30;;
4305;SDS011;2166;49.926;8.608;2023-07-29T01:21:42;4.45;;;1.98;;
4305;SDS011;2166;49.926;8.608;2023-07-29T01:24:11;4.30;;;1.40;;
4305;SDS011;2166;49.926;8.608;2023-07-29T01:26:40;3.40;;;1.67;;
4305;SDS011;2166;49.926;8.608;2023-07-29T01:29:09;3.35;;;1.65;;
4305;SDS011;2166;49.926;8.608;2023-07-29T01:31:38;1.48;;;1.38;;
4305;SDS011;2166;49.926;8.608;2023-07-29T01:36:44;2.55;;;1.73;;
4305;SDS011;2166;49.926;8.608;2023-07-29T01:39:16;6.45;;;1.58;;
4305;SDS011;2166;49.926;8.608;2023-07-29T01:41:45;3.58;;;1.60;;
4305;SDS011;2166;49.926;8.608;2023-07-29T01:44:14;1.67;;;1.40;;
4305;SDS011;2166;49.926;8.608;2023-07-29T01:46:44;6.07;;;1.42;;
4305;SDS011;2166;49.926;8.608;2023-07-29T01:49:13;3.28;;;1.30;;
4305;SDS011;2166;49.926;8.608;2023-07-29T01:51:41;5.85;;;1.25;;
4305;SDS011;2166;49.926;8.608;2023-07-29T01:54:10;2.70;;;1.27;;
4305;SDS011;2166;49.926;8.608;2023-07-29T01:56:40;2.15;;;1.50;;
4305;SDS011;2166;49.926;8.608;2023-07-29T01:59:09;1.30;;;1.20;;
4305;SDS011;2166;49.926;8.608;2023-07-29T02:01:37;1.73;;;1.17;;
4305;SDS011;2166;49.926;8.608;2023-07-29T02:04:06;1.95;;;1.17;;
4305;SDS011;2166;49.926;8.608;2023-07-29T02:06:34;3.22;;;1.30;;
4305;SDS011;2166;49.926;8.608;2023-07-29T02:09:03;2.22;;;1.00;;
4305;SDS011;2166;49.926;8.608;2023-07-29T02:11:32;5.03;;;1.40;;
4305;SDS011;2166;49.926;8.608;2023-07-29T02:14:03;7.55;;;1.55;;
4305;SDS011;2166;49.926;8.608;2023-07-29T02:16:31;3.22;;;1.23;;
4305;SDS011;2166;49.926;8.608;2023-07-29T02:19:04;1.20;;;1.10;;
4305;SDS011;2166;49.926;8.608;2023-07-29T02:21:33;4.60;;;1.75;;
4305;SDS011;2166;49.926;8.608;2023-07-29T02:24:01;5.10;;;1.52;;
4305;SDS011;2166;49.926;8.608;2023-07-29T02:26:30;1.92;;;1.50;;
4305;SDS011;2166;49.926;8.608;2023-07-29T02:29:00;3.50;;;1.20;;
4305;SDS011;2166;49.926;8.608;2023-07-29T02:31:31;2.08;;;1.10;;
4305;SDS011;2166;49.926;8.608;2023-07-29T02:34:01;1.40;;;1.20;;
4305;SDS011;2166;49.926;8.608;2023-07-29T02:36:30;3.10;;;1.52;;
4305;SDS011;2166;49.926;8.608;2023-07-29T02:38:59;1.90;;;1.48;;
4305;SDS011;2166;49.926;8.608;2023-07-29T02:41:31;6.95;;;2.08;;
4305;SDS011;2166;49.926;8.608;2023-07-29T02:44:01;2.78;;;1.65;;
4305;SDS011;2166;49.926;8.608;2023-07-29T02:46:31;1.85;;;1.35;;
4305;SDS011;2166;49.926;8.608;2023-07-29T02:48:59;2.05;;;1.80;;
4305;SDS011;2166;49.926;8.608;2023-07-29T02:51:29;4.65;;;1.23;;
4305;SDS011;2166;49.926;8.608;2023-07-29T02:53:58;3.78;;;1.75;;
4305;SDS011;2166;49.926;8.608;2023-07-29T02:56:26;2.65;;;1.83;;
4305;SDS011;2166;49.926;8.608;2023-07-29T02:58:55;1.92;;;1.60;;
4305;SDS011;2166;49.926;8.608;2023-07-29T03:01:24;8.18;;;1.88;;
4305;SDS011;2166;49.926;8.608;2023-07-29T03:03:54;1.90;;;1.75;;
4305;SDS011;2166;49.926;8.608;2023-07-29T03:06:23;3.65;;;1.90;;
4305;SDS011;2166;49.926;8.608;2023-07-29T03:08:51;4.68;;;2.22;;
4305;SDS011;2166;49.926;8.608;2023-07-29T03:11:20;3.63;;;1.95;;
4305;SDS011;2166;49.926;8.608;2023-07-29T03:13:49;4.32;;;2.35;;
4305;SDS011;2166;49.926;8.608;2023-07-29T03:16:17;3.17;;;2.47;;
4305;SDS011;2166;49.926;8.608;2023-07-29T03:18:52;5.03;;;2.00;;
4305;SDS011;2166;49.926;8.608;2023-07-29T03:21:22;4.22;;;2.03;;
4305;SDS011;2166;49.926;8.608;2023-07-29T03:23:50;5.63;;;2.80;;
4305;SDS011;2166;49.926;8.608;2023-07-29T03:26:19;2.85;;;1.88;;
4305;SDS011;2166;49.926;8.608;2023-07-29T03:28:48;4.10;;;2.45;;
4305;SDS011;2166;49.926;8.608;2023-07-29T03:31:16;4.25;;;2.30;;
4305;SDS011;2166;49.926;8.608;2023-07-29T03:33:45;3.65;;;2.33;;
4305;SDS011;2166;49.926;8.608;2023-07-29T03:36:15;2.60;;;2.40;;
4305;SDS011;2166;49.926;8.608;2023-07-29T03:38:43;5.07;;;2.50;;
4305;SDS011;2166;49.926;8.608;2023-07-29T03:41:12;3.78;;;2.65;;
4305;SDS011;2166;49.926;8.608;2023-07-29T03:43:41;6.93;;;2.58;;
4305;SDS011;2166;49.926;8.608;2023-07-29T03:46:09;3.25;;;2.17;;
4305;SDS011;2166;49.926;8.608;2023-07-29T03:48:39;3.65;;;2.42;;
4305;SDS011;2166;49.926;8.608;2023-07-29T03:51:08;7.00;;;2.28;;
4305;SDS011;2166;49.926;8.608;2023-07-29T03:53:38;4.40;;;2.33;;
4305;SDS011;2166;49.926;8.608;2023-07-29T03:56:06;4.90;;;2.67;;
4305;SDS011;2166;49.926;8.608;2023-07-29T03:58:35;5.53;;;3.20;;
4305;SDS011;2166;49.926;8.608;2023-07-29T04:01:05;4.78;;;2.80;;
4305;SDS011;2166;49.926;8.608;2023-07-29T04:03:34;5.75;;;2.80;;
4305;SDS011;2166;49.926;8.608;2023-07-29T04:06:02;3.97;;;2.60;;
4305;SDS011;2166;49.926;8.608;2023-07-29T04:08:31;5.38;;;2.70;;
4305;SDS011;2166;49.926;8.608;2023-07-29T04:11:01;3.03;;;2.60;;
4305;SDS011;2166;49.926;8.608;2023-07-29T04:13:30;5.47;;;2.53;;
4305;SDS011;2166;49.926;8.608;2023-07-29T04:15:59;3.50;;;2.33;;
4305;SDS011;2166;49.926;8.608;2023-07-29T04:18:28;4.65;;;2.78;;
4305;SDS011;2166;49.926;8.608;2023-07-29T04:20:57;3.80;;;2.80;;
4305;SDS011;2166;49.926;8.608;2023-07-29T04:23:25;7.32;;;2.80;;
4305;SDS011;2166;49.926;8.608;2023-07-29T04:25:54;4.90;;;2.45;;
4305;SDS011;2166;49.926;8.608;2023-07-29T04:28:24;4.50;;;2.83;;
4305;SDS011;2166;49.926;8.608;2023-07-29T04:30:53;6.70;;;2.78;;
4305;SDS011;2166;49.926;8.608;2023-07-29T04:33:23;4.32;;;2.70;;
4305;SDS011;2166;49.926;8.608;2023-07-29T04:35:51;3.78;;;2.67;;
4305;SDS011;2166;49.926;8.608;2023-07-29T04:38:19;3.88;;;3.13;;
4305;SDS011;2166;49.926;8.608;2023-07-29T04:40:48;6.18;;;2.85;;
4305;SDS011;2166;49.926;8.608;2023-07-29T04:43:17;4.00;;;2.72;;
4305;SDS011;2166;49.926;8.608;2023-07-29T04:45:49;6.55;;;2.90;;
4305;SDS011;2166;49.926;8.608;2023-07-29T04:48:18;3.05;;;2.70;;
4305;SDS011;2166;49.926;8.608;2023-07-29T04:50:46;6.22;;;2.45;;
4305;SDS011;2166;49.926;8.608;2023-07-29T04:53:16;6.65;;;2.42;;
4305;SDS011;2166;49.926;8.608;2023-07-29T04:55:45;5.65;;;2.88;;
4305;SDS011;2166;49.926;8.608;2023-07-29T04:58:13;5.40;;;2.35;;
4305;SDS011;2166;49.926;8.608;2023-07-29T05:00:42;3.95;;;2.58;;
4305;SDS011;2166;49.926;8.608;2023-07-29T05:03:16;6.38;;;3.03;;
4305;SDS011;2166;49.926;8.608;2023-07-29T05:05:44;4.88;;;2.60;;
4305;SDS011;2166;49.926;8.608;2023-07-29T05:08:13;3.25;;;2.50;;
4305;SDS011;2166;49.926;8.608;2023-07-29T05:10:42;2.90;;;2.30;;
4305;SDS011;2166;49.926;8.608;2023-07-29T05:13:10;6.97;;;2.28;;
4305;SDS011;2166;49.926;8.608;2023-07-29T05:15:40;5.10;;;2.53;;
4305;SDS011;2166;49.926;8.608;2023-07-29T05:18:09;3.75;;;2.80;;
4305;SDS011;2166;49.926;8.608;2023-07-29T05:20:39;5.68;;;2.45;;
4305;SDS011;2166;49.926;8.608;2023-07-29T05:23:07;4.38;;;2.90;;
4305;SDS011;2166;49.926;8.608;2023-07-29T05:25:36;5.38;;;2.58;;
4305;SDS011;2166;49.926;8.608;2023-07-29T05:28:04;2.65;;;2.25;;
4305;SDS011;2166;49.926;8.608;2023-07-29T05:30:32;3.92;;;2.15;;
4305;SDS011;2166;49.926;8.608;2023-07-29T05:33:05;8.75;;;2.63;;
4305;SDS011;2166;49.926;8.608;2023-07-29T05:35:35;3.17;;;2.10;;
4305;SDS011;2166;49.926;8.608;2023-07-29T05:38:05;5.40;;;2.55;;
4305;SDS011;2166;49.926;8.608;2023-07-29T05:40:34;5.13;;;2.30;;
4305;SDS011;2166;49.926;8.608;2023-07-29T05:43:02;3.45;;;2.55;;
4305;SDS011;2166;49.926;8.608;2023-07-29T05:45:31;4.05;;;2.47;;
4305;SDS011;2166;49.926;8.608;2023-07-29T05:47:59;2.42;;;2.22;;
4305;SDS011;2166;49.926;8.608;2023-07-29T05:50:27;6.18;;;2.78;;
4305;SDS011;2166;49.926;8.608;2023-07-29T05:52:56;2.30;;;2.10;;
4305;SDS011;2166;49.926;8.608;2023-07-29T05:55:26;4.43;;;2.22;;
4305;SDS011;2166;49.926;8.608;2023-07-29T05:57:54;5.57;;;2.10;;
4305;SDS011;2166;49.926;8.608;2023-07-29T06:00:24;5.78;;;2.60;;
4305;SDS011;2166;49.926;8.608;2023-07-29T06:02:53;2.72;;;1.92;;
4305;SDS011;2166;49.926;8.608;2023-07-29T06:05:22;4.60;;;1.90;;
4305;SDS011;2166;49.926;8.608;2023-07-29T06:07:51;5.15;;;2.13;;
4305;SDS011;2166;49.926;8.608;2023-07-29T06:10:20;5.90;;;2.03;;
4305;SDS011;2166;49.926;8.608;2023-07-29T06:12:50;4.97;;;2.15;;
4305;SDS011;2166;49.926;8.608;2023-07-29T06:15:19;4.63;;;2.67;;
4305;SDS011;2166;49.926;8.608;2023-07-29T06:17:49;4.80;;;2.28;;
4305;SDS011;2166;49.926;8.608;2023-07-29T06:20:23;4.22;;;2.75;;
4305;SDS011;2166;49.926;8.608;2023-07-29T06:22:52;4.00;;;2.30;;
4305;SDS011;2166;49.926;8.608;2023-07-29T06:25:20;5.22;;;2.58;;
4305;SDS011;2166;49.926;8.608;2023-07-29T06:27:50;5.32;;;2.70;;
4305;SDS011;2166;49.926;8.608;2023-07-29T06:30:19;3.60;;;2.53;;
4305;SDS011;2166;49.926;8.608;2023-07-29T06:32:47;5.40;;;2.65;;
4305;SDS011;2166;49.926;8.608;2023-07-29T06:35:16;3.70;;;2.72;;
4305;SDS011;2166;49.926;8.608;2023-07-29T06:37:44;3.90;;;2.63;;
4305;SDS011;2166;49.926;8.608;2023-07-29T06:40:13;4.53;;;3.00;;
4305;SDS011;2166;49.926;8.608;2023-07-29T06:42:41;5.60;;;3.40;;
4305;SDS011;2166;49.926;8.608;2023-07-29T06:45:11;10.35;;;3.67;;
4305;SDS011;2166;49.926;8.608;2023-07-29T06:47:39;3.78;;;3.15;;
4305;SDS011;2166;49.926;8.608;2023-07-29T06:50:08;5.80;;;3.70;;
4305;SDS011;2166;49.926;8.608;2023-07-29T06:52:36;7.10;;;3.47;;
4305;SDS011;2166;49.926;8.608;2023-07-29T06:55:07;6.50;;;3.88;;
4305;SDS011;2166;49.926;8.608;2023-07-29T06:57:36;8.60;;;3.70;;
4305;SDS011;2166;49.926;8.608;2023-07-29T07:00:05;7.57;;;5.03;;
4305;SDS011;2166;49.926;8.608;2023-07-29T07:02:37;11.82;;;5.60;;
4305;SDS011;2166;49.926;8.608;2023-07-29T07:05:05;11.13;;;5.93;;
4305;SDS011;2166;49.926;8.608;2023-07-29T07:07:34;10.10;;;6.25;;
4305;SDS011;2166;49.926;8.608;2023-07-29T07:10:04;9.75;;;7.05;;
4305;SDS011;2166;49.926;8.608;2023-07-29T07:12:35;7.93;;;6.60;;
4305;SDS011;2166;49.926;8.608;2023-07-29T07:15:03;11.13;;;8.02;;
4305;SDS011;2166;49.926;8.608;2023-07-29T07:17:33;9.05;;;7.53;;
4305;SDS011;2166;49.926;8.608;2023-07-29T07:20:03;10.15;;;8.60;;
4305;SDS011;2166;49.926;8.608;2023-07-29T07:22:34;9.70;;;8.70;;
4305;SDS011;2166;49.926;8.608;2023-07-29T07:25:03;9.75;;;8.82;;
4305;SDS011;2166;49.926;8.608;2023-07-29T07:27:34;10.93;;;7.72;;
4305;SDS011;2166;49.926;8.608;2023-07-29T07:30:04;10.57;;;8.52;;
4305;SDS011;2166;49.926;8.608;2023-07-29T07:32:33;9.93;;;8.63;;
4305;SDS011;2166;49.926;8.608;2023-07-29T07:35:03;11.35;;;8.43;;
4305;SDS011;2166;49.926;8.608;2023-07-29T07:37:32;9.35;;;7.88;;
4305;SDS011;2166;49.926;8.608;2023-07-29T07:40:01;8.35;;;7.40;;
4305;SDS011;2166;49.926;8.608;2023-07-29T07:42:30;8.32;;;7.53;;
4305;SDS011;2166;49.926;8.608;2023-07-29T07:44:58;7.65;;;6.85;;
4305;SDS011;2166;49.926;8.608;2023-07-29T07:47:27;10.32;;;7.05;;
4305;SDS011;2166;49.926;8.608;2023-07-29T07:49:56;4.70;;;4.10;;
4305;SDS011;2166;49.926;8.608;2023-07-29T07:52:26;4.05;;;3.42;;
4305;SDS011;2166;49.926;8.608;2023-07-29T07:54:55;4.20;;;3.42;;
4305;SDS011;2166;49.926;8.608;2023-07-29T07:57:24;5.75;;;3.60;;
4305;SDS011;2166;49.926;8.608;2023-07-29T07:59:53;3.65;;;3.35;;
4305;SDS011;2166;49.926;8.608;2023-07-29T08:02:24;4.00;;;3.55;;
4305;SDS011;2166;49.926;8.608;2023-07-29T08:04:53;4.07;;;2.70;;
4305;SDS011;2166;49.926;8.608;2023-07-29T08:07:21;3.15;;;2.85;;
4305;SDS011;2166;49.926;8.608;2023-07-29T08:09:51;4.18;;;2.65;;
4305;SDS011;2166;49.926;8.608;2023-07-29T08:12:19;4.43;;;2.85;;
4305;SDS011;2166;49.926;8.608;2023-07-29T08:14:48;2.83;;;2.60;;
4305;SDS011;2166;49.926;8.608;2023-07-29T08:17:16;4.18;;;2.70;;
4305;SDS011;2166;49.926;8.608;2023-07-29T08:19:44;3.90;;;2.78;;
4305;SDS011;2166;49.926;8.608;2023-07-29T08:22:13;3.63;;;2.85;;
4305;SDS011;2166;49.926;8.608;2023-07-29T08:24:43;5.03;;;2.92;;
4305;SDS011;2166;49.926;8.608;2023-07-29T08:27:14;5.10;;;2.13;;
4305;SDS011;2166;49.926;8.608;2023-07-29T08:29:42;1.33;;;1.23;;
4305;SDS011;2166;49.926;8.608;2023-07-29T08:32:10;2.85;;;1.38;;
4305;SDS011;2166;49.926;8.608;2023-07-29T08:34:39;3.25;;;1.00;;
4305;SDS011;2166;49.926;8.608;2023-07-29T08:37:07;3.53;;;0.93;;
4305;SDS011;2166;49.926;8.608;2023-07-29T08:39:36;1.27;;;0.90;;
4305;SDS011;2166;49.926;8.608;2023-07-29T08:42:04;2.92;;;1.33;;
4305;SDS011;2166;49.926;8.608;2023-07-29T08:44:41;2.33;;;1.30;;
4305;SDS011;2166;49.926;8.608;2023-07-29T08:47:11;1.45;;;0.90;;
4305;SDS011;2166;49.926;8.608;2023-07-29T08:49:39;2.78;;;1.27;;
4305;SDS011;2166;49.926;8.608;2023-07-29T08:52:09;1.35;;;0.90;;
4305;SDS011;2166;49.926;8.608;2023-07-29T08:54:38;3.17;;;1.48;;
4305;SDS011;2166;49.926;8.608;2023-07-29T08:57:07;3.22;;;1.38;;
4305;SDS011;2166;49.926;8.608;2023-07-29T08:59:35;3.17;;;1.65;;
4305;SDS011;2166;49.926;8.608;2023-07-29T09:02:07;3.13;;;1.17;;
4305;SDS011;2166;49.926;8.608;2023-07-29T09:04:35;1.55;;;0.90;;
4305;SDS011;2166;49.926;8.608;2023-07-29T09:07:04;1.40;;;0.98;;
4305;SDS011;2166;49.926;8.608;2023-07-29T09:09:34;2.05;;;0.90;;
4305;SDS011;2166;49.926;8.608;2023-07-29T09:12:04;2.85;;;1.42;;
4305;SDS011;2166;49.926;8.608;2023-07-29T09:14:34;5.22;;;1.23;;
4305;SDS011;2166;49.926;8.608;2023-07-29T09:17:02;4.90;;;1.10;;
4305;SDS011;2166;49.926;8.608;2023-07-29T09:19:36;2.45;;;0.82;;
4305;SDS011;2166;49.926;8.608;2023-07-29T09:22:04;2.22;;;0.90;;
4305;SDS011;2166;49.926;8.608;2023-07-29T09:24:44;2.05;;;1.35;;
4305;SDS011;2166;49.926;8.608;2023-07-29T09:27:23;0.90;;;0.80;;
4305;SDS011;2166;49.926;8.608;2023-07-29T09:29:54;1.27;;;1.17;;
4305;SDS011;2166;49.926;8.608;2023-07-29T09:32:24;2.72;;;1.35;;
4305;SDS011;2166;49.926;8.608;2023-07-29T09:34:54;4.32;;;1.30;;
4305;SDS011;2166;49.926;8.608;2023-07-29T09:37:22;2.90;;;0.85;;
4305;SDS011;2166;49.926;8.608;2023-07-29T09:39:51;2.47;;;0.90;;
4305;SDS011;2166;49.926;8.608;2023-07-29T09:42:20;2.38;;;0.68;;
4305;SDS011;2166;49.926;8.608;2023-07-29T09:44:50;0.90;;;0.60;;
4305;SDS011;2166;49.926;8.608;2023-07-29T09:47:20;0.80;;;0.60;;
4305;SDS011;2166;49.926;8.608;2023-07-29T09:49:49;2.85;;;0.60;;
4305;SDS011;2166;49.926;8.608;2023-07-29T09:52:20;0.70;;;0.57;;
4305;SDS011;2166;49.926;8.608;2023-07-29T09:54:51;4.20;;;0.70;;
4305;SDS011;2166;49.926;8.608;2023-07-29T09:57:19;1.10;;;0.52;;
4305;SDS011;2166;49.926;8.608;2023-07-29T09:59:55;0.88;;;0.47;;
4305;SDS011;2166;49.926;8.608;2023-07-29T10:02:24;2.88;;;0.70;;
4305;SDS011;2166;49.926;8.608;2023-07-29T10:04:57;0.65;;;0.57;;
4305;SDS011;2166;49.926;8.608;2023-07-29T10:07:31;0.40;;;0.40;;
4305;SDS011;2166;49.926;8.608;2023-07-29T10:10:01;1.73;;;0.60;;
4305;SDS011;2166;49.926;8.608;2023-07-29T10:12:31;2.78;;;0.82;;
4305;SDS011;2166;49.926;8.608;2023-07-29T10:15:02;1.55;;;0.45;;
4305;SDS011;2166;49.926;8.608;2023-07-29T10:17:31;3.83;;;0.80;;
4305;SDS011;2166;49.926;8.608;2023-07-29T10:20:03;1.20;;;0.68;;
4305;SDS011;2166;49.926;8.608;2023-07-29T10:22:35;1.00;;;0.40;;
4305;SDS011;2166;49.926;8.608;2023-07-29T10:25:07;0.57;;;0.57;;
4305;SDS011;2166;49.926;8.608;2023-07-29T10:27:39;4.07;;;0.80;;
4305;SDS011;2166;49.926;8.608;2023-07-29T10:30:11;1.05;;;0.50;;
4305;SDS011;2166;49.926;8.608;2023-07-29T10:32:42;0.65;;;0.45;;
4305;SDS011;2166;49.926;8.608;2023-07-29T10:35:12;3.03;;;0.70;;
4305;SDS011;2166;49.926;8.608;2023-07-29T10:37:42;4.70;;;0.80;;
4305;SDS011;2166;49.926;8.608;2023-07-29T10:40:12;1.25;;;0.60;;
4305;SDS011;2166;49.926;8.608;2023-07-29T10:45:28;1.83;;;0.88;;
4305;SDS011;2166;49.926;8.608;2023-07-29T10:48:05;1.80;;;0.60;;
4305;SDS011;2166;49.926;8.608;2023-07-29T10:50:35;1.30;;;0.73;;
4305;SDS011;2166;49.926;8.608;2023-07-29T10:53:05;3.90;;;0.98;;
4305;SDS011;2166;49.926;8.608;2023-07-29T10:55:37;4.07;;;0.90;;
4305;SDS011;2166;49.926;8.608;2023-07-29T10:58:06;2.95;;;0.77;;
4305;SDS011;2166;49.926;8.608;2023-07-29T11:00:42;0.75;;;0.70;;
4305;SDS011;2166;49.926;8.608;2023-07-29T11:03:12;1.42;;;0.73;;
4305;SDS011;2166;49.926;8.608;2023-07-29T11:05:46;1.02;;;0.73;;
4305;SDS011;2166;49.926;8.608;2023-07-29T11:08:20;2.95;;;0.80;;
4305;SDS011;2166;49.926;8.608;2023-07-29T11:10:57;1.95;;;0.80;;
4305;SDS011;2166;49.926;8.608;2023-07-29T11:13:30;2.53;;;0.80;;
4305;SDS011;2166;49.926;8.608;2023-07-29T11:16:00;1.05;;;0.75;;
4305;SDS011;2166;49.926;8.608;2023-07-29T11:18:30;1.75;;;0.90;;
4305;SDS011;2166;49.926;8.608;2023-07-29T11:21:01;1.17;;;0.65;;
4305;SDS011;2166;49.926;8.608;2023-07-29T11:23:32;1.35;;;0.50;;
4305;SDS011;2166;49.926;8.608;2023-07-29T11:26:03;1.38;;;0.75;;
4305;SDS011;2166;49.926;8.608;2023-07-29T11:28:37;2.58;;;0.70;;
4305;SDS011;2166;49.926;8.608;2023-07-29T11:31:07;1.15;;;0.80;;
4305;SDS011;2166;49.926;8.608;2023-07-29T11:33:38;3.80;;;0.90;;
4305;SDS011;2166;49.926;8.608;2023-07-29T11:36:16;1.00;;;0.82;;
4305;SDS011;2166;49.926;8.608;2023-07-29T11:38:47;1.30;;;0.90;;
4305;SDS011;2166;49.926;8.608;2023-07-29T11:41:19;2.00;;;0.80;;
4305;SDS011;2166;49.926;8.608;2023-07-29T11:43:49;1.50;;;1.00;;
4305;SDS011;2166;49.926;8.608;2023-07-29T11:46:20;2.83;;;0.73;;
4305;SDS011;2166;49.926;8.608;2023-07-29T11:48:50;1.20;;;1.00;;
4305;SDS011;2166;49.926;8.608;2023-07-29T11:51:18;1.55;;;0.75;;
4305;SDS011;2166;49.926;8.608;2023-07-29T11:53:49;0.95;;;0.85;;
4305;SDS011;2166;49.926;8.608;2023-07-29T11:56:17;1.80;;;1.00;;
4305;SDS011;2166;49.926;8.608;2023-07-29T11:58:47;1.65;;;0.95;;
4305;SDS011;2166;49.926;8.608;2023-07-29T12:01:17;1.38;;;0.82;;
4305;SDS011;2166;49.926;8.608;2023-07-29T12:03:46;0.85;;;0.70;;
4305;SDS011;2166;49.926;8.608;2023-07-29T12:06:16;1.42;;;0.90;;
4305;SDS011;2166;49.926;8.608;2023-07-29T12:08:45;1.67;;;0.80;;
4305;SDS011;2166;49.926;8.608;2023-07-29T12:11:15;1.35;;;0.60;;
4305;SDS011;2166;49.926;8.608;2023-07-29T12:13:44;3.45;;;0.85;;
4305;SDS011;2166;49.926;8.608;2023-07-29T12:16:16;1.05;;;0.82;;
4305;SDS011;2166;49.926;8.608;2023-07-29T12:18:45;1.35;;;0.65;;
4305;SDS011;2166;49.926;8.608;2023-07-29T12:21:15;2.47;;;0.90;;
4305;SDS011;2166;49.926;8.608;2023-07-29T12:23:45;1.05;;;0.85;;
4305;SDS011;2166;49.926;8.608;2023-07-29T12:26:14;1.00;;;0.75;;
4305;SDS011;2166;49.926;8.608;2023-07-29T12:28:46;1.65;;;1.10;;
4305;SDS011;2166;49.926;8.608;2023-07-29T12:31:15;1.75;;;0.90;;
4305;SDS011;2166;49.926;8.608;2023-07-29T12:33:43;0.65;;;0.60;;
4305;SDS011;2166;49.926;8.608;2023-07-29T12:36:11;1.98;;;0.90;;
4305;SDS011;2166;49.926;8.608;2023-07-29T12:38:42;2.30;;;0.98;;
4305;SDS011;2166;49.926;8.608;2023-07-29T12:41:11;5.57;;;0.95;;
4305;SDS011;2166;49.926;8.608;2023-07-29T12:43:41;1.45;;;0.80;;
4305;SDS011;2166;49.926;8.608;2023-07-29T12:46:09;0.90;;;0.88;;
4305;SDS011;2166;49.926;8.608;2023-07-29T12:48:38;0.80;;;0.65;;
4305;SDS011;2166;49.926;8.608;2023-07-29T12:51:06;0.50;;;0.50;;
4305;SDS011;2166;49.926;8.608;2023-07-29T12:53:35;0.85;;;0.70;;
4305;SDS011;2166;49.926;8.608;2023-07-29T12:56:05;2.67;;;0.70;;
4305;SDS011;2166;49.926;8.608;2023-07-29T12:58:34;1.05;;;0.60;;
4305;SDS011;2166;49.926;8.608;2023-07-29T13:01:03;1.73;;;0.85;;
4305;SDS011;2166;49.926;8.608;2023-07-29T13:03:32;0.98;;;0.63;;
4305;SDS011;2166;49.926;8.608;2023-07-29T13:06:00;2.72;;;0.60;;
4305;SDS011;2166;49.926;8.608;2023-07-29T13:08:29;0.60;;;0.57;;
4305;SDS011;2166;49.926;8.608;2023-07-29T13:10:58;2.33;;;0.63;;
4305;SDS011;2166;49.926;8.608;2023-07-29T13:13:26;2.17;;;0.77;;
4305;SDS011;2166;49.926;8.608;2023-07-29T13:15:55;5.57;;;0.73;;
4305;SDS011;2166;49.926;8.608;2023-07-29T13:18:29;1.15;;;0.73;;
4305;SDS011;2166;49.926;8.608;2023-07-29T13:20:58;1.88;;;0.90;;
4305;SDS011;2166;49.926;8.608;2023-07-29T13:23:27;2.30;;;0.80;;
4305;SDS011;2166;49.926;8.608;2023-07-29T13:25:56;2.08;;;0.82;;
4305;SDS011;2166;49.926;8.608;2023-07-29T13:28:24;1.13;;;0.38;;
4305;SDS011;2166;49.926;8.608;2023-07-29T13:30:53;0.93;;;0.63;;
4305;SDS011;2166;49.926;8.608;2023-07-29T13:33:21;1.33;;;0.63;;
4305;SDS011;2166;49.926;8.608;2023-07-29T13:35:51;1.27;;;0.75;;
4305;SDS011;2166;49.926;8.608;2023-07-29T13:38:20;0.60;;;0.57;;
4305;SDS011;2166;49.926;8.608;2023-07-29T13:40:50;2.15;;;0.80;;
4305;SDS011;2166;49.926;8.608;2023-07-29T13:43:18;2.72;;;0.98;;
4305;SDS011;2166;49.926;8.608;2023-07-29T13:45:46;1.75;;;0.90;;
4305;SDS011;2166;49.926;8.608;2023-07-29T13:48:17;1.52;;;1.00;;
4305;SDS011;2166;49.926;8.608;2023-07-29T13:50:45;1.80;;;0.85;;
4305;SDS011;2166;49.926;8.608;2023-07-29T13:53:15;0.68;;;0.52;;
4305;SDS011;2166;49.926;8.608;2023-07-29T13:55:43;0.60;;;0.57;;
4305;SDS011;2166;49.926;8.608;2023-07-29T13:58:12;1.88;;;1.05;;
4305;SDS011;2166;49.926;8.608;2023-07-29T14:00:40;3.70;;;0.90;;
4305;SDS011;2166;49.926;8.608;2023-07-29T14:03:09;3.63;;;0.80;;
4305;SDS011;2166;49.926;8.608;2023-07-29T14:05:37;1.10;;;0.60;;
4305;SDS011;2166;49.926;8.608;2023-07-29T14:08:06;1.40;;;0.70;;
4305;SDS011;2166;49.926;8.608;2023-07-29T14:10:36;3.92;;;0.85;;
4305;SDS011;2166;49.926;8.608;2023-07-29T14:13:05;1.10;;;0.88;;
4305;SDS011;2166;49.926;8.608;2023-07-29T14:15:34;0.70;;;0.70;;
4305;SDS011;2166;49.926;8.608;2023-07-29T14:18:02;1.23;;;0.70;;
4305;SDS011;2166;49.926;8.608;2023-07-29T14:20:31;1.02;;;0.80;;
4305;SDS011;2166;49.926;8.608;2023-07-29T14:23:01;0.80;;;0.52;;
4305;SDS011;2166;49.926;8.608;2023-07-29T14:25:29;0.88;;;0.60;;
4305;SDS011;2166;49.926;8.608;2023-07-29T14:27:59;2.40;;;1.15;;
4305;SDS011;2166;49.926;8.608;2023-07-29T14:30:27;4.03;;;0.77;;
4305;SDS011;2166;49.926;8.608;2023-07-29T14:32:56;1.00;;;0.77;;
4305;SDS011;2166;49.926;8.608;2023-07-29T14:35:24;1.48;;;0.70;;
4305;SDS011;2166;49.926;8.608;2023-07-29T14:37:53;1.33;;;0.75;;
4305;SDS011;2166;49.926;8.608;2023-07-29T14:40:22;3.65;;;0.43;;
4305;SDS011;2166;49.926;8.608;2023-07-29T14:42:53;3.17;;;1.00;;
4305;SDS011;2166;49.926;8.608;2023-07-29T14:45:25;0.77;;;0.77;;
4305;SDS011;2166;49.926;8.608;2023-07-29T14:47:53;1.10;;;0.93;;
4305;SDS011;2166;49.926;8.608;2023-07-29T14:50:22;2.53;;;0.90;;
4305;SDS011;2166;49.926;8.608;2023-07-29T14:52:50;1.42;;;0.73;;
4305;SDS011;2166;49.926;8.608;2023-07-29T14:55:18;0.68;;;0.68;;
4305;SDS011;2166;49.926;8.608;2023-07-29T14:57:47;1.73;;;0.80;;
4305;SDS011;2166;49.926;8.608;2023-07-29T15:00:15;1.33;;;0.80;;
4305;SDS011;2166;49.926;8.608;2023-07-29T15:02:45;1.13;;;1.00;;
4305;SDS011;2166;49.926;8.608;2023-07-29T15:05:14;1.10;;;0.80;;
4305;SDS011;2166;49.926;8.608;2023-07-29T15:07:42;0.55;;;0.55;;
4305;SDS011;2166;49.926;8.608;2023-07-29T15:10:13;0.70;;;0.65;;
4305;SDS011;2166;49.926;8.608;2023-07-29T15:12:42;1.55;;;0.88;;
4305;SDS011;2166;49.926;8.608;2023-07-29T15:15:11;2.67;;;1.05;;
4305;SDS011;2166;49.926;8.608;2023-07-29T15:17:40;0.70;;;0.70;;
4305;SDS011;2166;49.926;8.608;2023-07-29T15:20:11;0.95;;;0.70;;
4305;SDS011;2166;49.926;8.608;2023-07-29T15:22:39;0.90;;;0.70;;
4305;SDS011;2166;49.926;8.608;2023-07-29T15:25:18;1.58;;;0.73;;
4305;SDS011;2166;49.926;8.608;2023-07-29T15:27:47;3.78;;;1.10;;
4305;SDS011;2166;49.926;8.608;2023-07-29T15:30:15;1.42;;;0.63;;
4305;SDS011;2166;49.926;8.608;2023-07-29T15:32:43;0.70;;;0.70;;
4305;SDS011;2166;49.926;8.608;2023-07-29T15:35:13;1.52;;;0.93;;
4305;SDS011;2166;49.926;8.608;2023-07-29T15:37:43;1.50;;;0.85;;